createdAt,value
2023-04-19T00:00:08.279Z,10.30
2023-04-19T00:02:38.271Z,10.30
2023-04-19T00:05:07.388Z,10.30
2023-04-19T00:07:35.531Z,10.30
2023-04-19T00:10:03.721Z,10.40
2023-04-19T00:12:31.737Z,10.30
2023-04-19T00:14:59.800Z,10.40
2023-04-19T00:17:29.135Z,10.40
2023-04-19T00:19:58.779Z,10.50
2023-04-19T00:22:26.867Z,10.40
2023-04-19T00:24:54.880Z,10.40
2023-04-19T00:27:22.830Z,10.40
2023-04-19T00:29:50.802Z,10.40
2023-04-19T00:32:18.777Z,10.40
2023-04-19T00:34:47.179Z,10.50
2023-04-19T00:37:16.648Z,10.50
2023-04-19T00:39:44.651Z,10.50
2023-04-19T00:42:12.626Z,10.40
2023-04-19T00:44:40.573Z,10.40
2023-04-19T00:47:08.876Z,10.40
2023-04-19T00:49:37.129Z,10.40
2023-04-19T00:52:06.172Z,10.40
2023-04-19T00:54:35.888Z,10.40
2023-04-19T00:57:04.010Z,10.40
2023-04-19T00:59:32.498Z,10.40
2023-04-19T01:02:00.680Z,10.40
2023-04-19T01:04:28.951Z,10.30
2023-04-19T01:06:57.428Z,10.40
2023-04-19T01:09:25.458Z,10.40
2023-04-19T01:11:55.213Z,10.40
2023-04-19T01:14:23.170Z,10.40
2023-04-19T01:16:51.705Z,10.40
2023-04-19T01:19:19.707Z,10.40
2023-04-19T01:21:47.688Z,10.40
2023-04-19T01:24:17.227Z,10.30
2023-04-19T01:26:45.453Z,10.30
2023-04-19T01:29:13.436Z,10.30
2023-04-19T01:31:41.664Z,10.20
2023-04-19T01:34:09.724Z,10.20
2023-04-19T01:36:37.665Z,10.20
2023-04-19T01:39:06.202Z,10.20
2023-04-19T01:41:35.546Z,10.30
2023-04-19T01:44:03.550Z,10.30
2023-04-19T01:46:31.615Z,10.30
2023-04-19T01:48:59.628Z,10.20
2023-04-19T01:51:27.881Z,10.20
2023-04-19T01:53:55.862Z,10.20
2023-04-19T01:56:23.910Z,10.20
2023-04-19T01:58:53.266Z,10.20
2023-04-19T02:01:21.479Z,10.20
2023-04-19T02:03:49.671Z,10.20
2023-04-19T02:06:17.793Z,10.20
2023-04-19T02:08:45.805Z,10.20
2023-04-19T02:11:15.492Z,10.20
2023-04-19T02:13:44.027Z,10.10
2023-04-19T02:16:13.472Z,10.10
2023-04-19T02:18:41.639Z,10.10
2023-04-19T02:21:10.948Z,10.10
2023-04-19T02:23:39.020Z,10.10
2023-04-19T02:26:07.072Z,10.10
2023-04-19T02:28:35.069Z,10.10
2023-04-19T02:31:06.673Z,10.10
2023-04-19T02:33:36.474Z,10.10
2023-04-19T02:36:04.709Z,10.10
2023-04-19T02:38:32.673Z,10.00
2023-04-19T02:41:01.697Z,10.00
2023-04-19T02:43:29.687Z,10.00
2023-04-19T02:45:57.670Z,10.00
2023-04-19T02:48:25.675Z,9.90
2023-04-19T02:50:55.091Z,10.00
2023-04-19T02:53:23.109Z,10.00
2023-04-19T02:55:51.119Z,10.00
2023-04-19T02:58:19.210Z,10.00
2023-04-19T03:00:47.140Z,9.90
2023-04-19T03:03:15.235Z,9.90
2023-04-19T03:05:43.308Z,9.80
2023-04-19T03:08:12.644Z,9.90
2023-04-19T03:10:40.725Z,9.80
2023-04-19T03:13:09.242Z,9.90
2023-04-19T03:15:37.279Z,9.90
2023-04-19T03:18:05.469Z,9.90
2023-04-19T03:20:34.044Z,9.80
2023-04-19T03:23:02.393Z,9.80
2023-04-19T03:25:32.119Z,9.90
2023-04-19T03:28:00.107Z,9.80
2023-04-19T03:30:28.074Z,9.90
2023-04-19T03:32:56.219Z,9.80
2023-04-19T03:35:26.261Z,9.80
2023-04-19T03:37:54.307Z,9.70
2023-04-19T03:40:22.693Z,9.70
2023-04-19T03:42:52.043Z,9.70
2023-04-19T03:45:20.356Z,9.70
2023-04-19T03:47:48.320Z,9.70
2023-04-19T03:50:16.368Z,9.70
2023-04-19T03:52:44.337Z,9.70
2023-04-19T03:55:14.056Z,9.70
2023-04-19T03:57:42.244Z,9.60
2023-04-19T04:00:13.241Z,9.60
2023-04-19T04:02:41.408Z,9.60
2023-04-19T04:05:09.895Z,9.60
2023-04-19T04:07:37.973Z,9.50
2023-04-19T04:10:07.014Z,9.50
2023-04-19T04:12:35.063Z,9.40
2023-04-19T04:15:03.392Z,9.50
2023-04-19T04:17:32.788Z,9.40
2023-04-19T04:20:01.341Z,9.40
2023-04-19T04:22:29.313Z,9.50
2023-04-19T04:24:58.211Z,9.50
2023-04-19T04:27:26.216Z,9.40
2023-04-19T04:29:54.503Z,9.40
2023-04-19T04:32:23.482Z,9.40
2023-04-19T04:34:53.122Z,9.30
2023-04-19T04:37:21.135Z,9.30
2023-04-19T04:39:49.133Z,9.30
2023-04-19T04:42:17.620Z,9.30
2023-04-19T04:44:47.349Z,9.20
2023-04-19T04:47:15.393Z,9.30
2023-04-19T04:49:43.411Z,9.20
2023-04-19T04:52:12.840Z,9.30
2023-04-19T04:54:41.169Z,9.30
2023-04-19T04:57:10.069Z,9.20
2023-04-19T04:59:38.043Z,9.30
2023-04-19T05:02:06.119Z,9.20
2023-04-19T05:04:34.314Z,9.20
2023-04-19T05:07:02.493Z,9.20
2023-04-19T05:09:31.823Z,9.20
2023-04-19T05:11:59.777Z,9.20
2023-04-19T05:14:27.737Z,9.10
2023-04-19T05:16:55.726Z,9.10
2023-04-19T05:19:23.700Z,9.10
2023-04-19T05:21:52.753Z,9.10
2023-04-19T05:24:20.709Z,9.10
2023-04-19T05:26:50.025Z,9.20
2023-04-19T05:29:18.557Z,9.20
2023-04-19T05:31:46.606Z,9.30
2023-04-19T05:34:14.784Z,9.20
2023-04-19T05:36:42.992Z,9.20
2023-04-19T05:39:10.964Z,9.20
2023-04-19T05:41:38.919Z,9.20
2023-04-19T05:44:08.310Z,9.30
2023-04-19T05:46:36.694Z,9.30
2023-04-19T05:49:04.791Z,9.30
2023-04-19T05:51:32.892Z,9.50
2023-04-19T05:54:01.833Z,9.60
2023-04-19T05:56:29.990Z,9.70
2023-04-19T05:58:58.350Z,9.80
2023-04-19T06:01:27.770Z,9.90
2023-04-19T06:03:56.083Z,10.00
2023-04-19T06:06:24.660Z,10.10
2023-04-19T06:08:54.906Z,10.10
2023-04-19T06:11:31.283Z,10.20
2023-04-19T06:14:03.020Z,10.30
2023-04-19T06:16:32.447Z,10.50
2023-04-19T06:19:00.477Z,10.70
2023-04-19T06:21:30.951Z,10.80
2023-04-19T06:23:58.919Z,11.00
2023-04-19T06:26:26.972Z,11.00
2023-04-19T06:28:54.956Z,11.10
2023-04-19T06:31:23.040Z,11.30
2023-04-19T06:33:52.413Z,11.40
2023-04-19T06:36:21.313Z,11.30
2023-04-19T06:38:50.061Z,11.30
2023-04-19T06:41:18.162Z,11.10
2023-04-19T06:43:46.370Z,11.20
2023-04-19T06:46:16.193Z,11.40
2023-04-19T06:48:45.333Z,11.40
2023-04-19T06:51:15.812Z,11.60
2023-04-19T06:53:44.758Z,11.60
2023-04-19T06:56:13.537Z,12.00
2023-04-19T06:58:41.503Z,12.10
2023-04-19T07:01:09.516Z,12.00
2023-04-19T07:03:37.647Z,12.10
2023-04-19T07:06:06.709Z,11.90
2023-04-19T07:08:48.822Z,11.90
2023-04-19T07:11:19.277Z,12.00
2023-04-19T07:13:48.413Z,11.90
2023-04-19T07:16:17.524Z,12.00
2023-04-19T07:18:45.639Z,12.30
2023-04-19T07:21:13.944Z,12.60
2023-04-19T07:23:43.328Z,12.60
2023-04-19T07:26:11.416Z,12.70
2023-04-19T07:28:40.765Z,12.70
2023-04-19T07:31:08.788Z,12.80
2023-04-19T07:33:36.993Z,13.00
2023-04-19T07:36:06.558Z,12.80
2023-04-19T07:38:34.596Z,12.40
2023-04-19T07:41:05.253Z,12.60
2023-04-19T07:43:33.239Z,12.70
2023-04-19T07:46:01.268Z,12.20
2023-04-19T07:48:29.246Z,12.50
2023-04-19T07:50:57.218Z,12.20
2023-04-19T07:53:25.862Z,12.10
2023-04-19T07:55:53.872Z,12.10
2023-04-19T07:58:23.188Z,12.10
2023-04-19T08:00:51.172Z,11.90
2023-04-19T08:03:19.393Z,11.80
2023-04-19T08:05:47.577Z,11.70
2023-04-19T08:08:15.582Z,11.90
2023-04-19T08:10:43.582Z,12.10
2023-04-19T08:13:11.760Z,11.90
2023-04-19T08:18:12.080Z,11.70
2023-04-19T08:20:42.562Z,12.00
2023-04-19T08:23:21.579Z,12.00
2023-04-19T08:25:53.931Z,12.20
2023-04-19T08:28:21.905Z,12.30
2023-04-19T08:30:51.399Z,12.30
2023-04-19T08:33:19.360Z,12.20
2023-04-19T08:35:47.345Z,12.30
2023-04-19T08:38:15.409Z,12.20
2023-04-19T08:40:47.795Z,12.00
2023-04-19T08:43:17.971Z,12.00
2023-04-19T08:45:48.068Z,11.90
2023-04-19T08:48:18.686Z,11.80
2023-04-19T08:51:03.679Z,11.80
2023-04-19T08:53:35.598Z,11.80
2023-04-19T08:56:17.537Z,11.80
2023-04-19T09:01:32.997Z,11.90
2023-04-19T09:04:17.272Z,11.90
2023-04-19T09:06:51.107Z,12.10
2023-04-19T09:09:33.962Z,12.10
2023-04-19T09:12:16.233Z,12.10
2023-04-19T09:14:59.784Z,11.90
2023-04-19T09:17:29.015Z,11.90
2023-04-19T09:19:59.116Z,11.80
2023-04-19T09:22:27.266Z,11.90
2023-04-19T09:27:30.414Z,11.80
2023-04-19T09:30:00.279Z,11.90
2023-04-19T09:32:29.521Z,11.90
2023-04-19T09:35:00.317Z,12.00
2023-04-19T09:39:59.320Z,12.20
2023-04-19T09:48:02.340Z,12.00
2023-04-19T09:50:32.711Z,12.00
2023-04-19T09:53:02.798Z,11.80
2023-04-19T09:55:38.568Z,11.70
2023-04-19T09:58:17.059Z,11.70
2023-04-19T10:00:50.087Z,11.90
2023-04-19T10:03:22.322Z,11.80
2023-04-19T10:05:52.128Z,11.70
2023-04-19T10:08:20.897Z,11.80
2023-04-19T10:10:54.876Z,11.80
2023-04-19T10:13:26.658Z,11.90
2023-04-19T10:16:01.853Z,11.90
2023-04-19T10:18:40.082Z,12.20
2023-04-19T10:21:11.852Z,12.00
2023-04-19T10:23:40.029Z,12.10
2023-04-19T10:26:08.201Z,12.10
2023-04-19T10:28:38.080Z,12.10
2023-04-19T10:31:06.690Z,12.10
2023-04-19T10:33:38.091Z,12.20
2023-04-19T10:36:11.862Z,12.10
2023-04-19T10:38:41.576Z,12.10
2023-04-19T10:41:16.889Z,12.30
2023-04-19T10:43:47.591Z,12.20
2023-04-19T10:46:18.096Z,12.20
2023-04-19T10:48:54.585Z,12.30
2023-04-19T10:51:28.121Z,12.20
2023-04-19T10:54:00.633Z,12.10
2023-04-19T10:57:00.416Z,12.20
2023-04-19T10:59:30.501Z,12.30
2023-04-19T11:01:59.789Z,12.40
2023-04-19T11:05:05.522Z,12.60
2023-04-19T11:07:42.328Z,12.60
2023-04-19T11:10:11.505Z,12.50
2023-04-19T11:12:43.948Z,12.50
2023-04-19T11:15:12.113Z,12.60
2023-04-19T11:17:40.866Z,12.50
2023-04-19T11:20:11.181Z,12.60
2023-04-19T11:22:41.756Z,12.50
2023-04-19T11:25:12.130Z,12.50
2023-04-19T11:27:40.977Z,12.50
2023-04-19T11:30:11.387Z,12.50
2023-04-19T11:32:45.805Z,12.50
2023-04-19T11:35:13.959Z,12.50
2023-04-19T11:37:43.497Z,12.60
2023-04-19T11:40:16.699Z,12.60
2023-04-19T11:42:45.017Z,12.40
2023-04-19T11:45:25.735Z,12.50
2023-04-19T11:47:57.484Z,12.50
2023-04-19T11:50:36.500Z,12.50
2023-04-19T11:53:17.071Z,12.50
2023-04-19T11:55:46.565Z,12.40
2023-04-19T11:58:33.783Z,12.40
2023-04-19T12:01:06.535Z,12.30
2023-04-19T12:03:35.107Z,12.50
2023-04-19T12:06:05.026Z,12.60
2023-04-19T12:08:36.384Z,12.50
2023-04-19T12:11:05.607Z,12.50
2023-04-19T12:13:34.470Z,12.60
2023-04-19T12:16:02.658Z,12.70
2023-04-19T12:18:44.470Z,12.70
2023-04-19T12:21:13.738Z,12.70
2023-04-19T12:23:43.070Z,12.70
2023-04-19T12:26:11.573Z,12.80
2023-04-19T12:28:39.582Z,12.70
2023-04-19T12:31:07.524Z,12.70
2023-04-19T12:33:35.520Z,12.90
2023-04-19T12:36:03.777Z,12.80
2023-04-19T12:38:31.777Z,12.80
2023-04-19T12:41:01.065Z,12.90
2023-04-19T12:43:30.130Z,13.00
2023-04-19T12:45:58.347Z,12.90
2023-04-19T12:48:26.488Z,12.80
2023-04-19T12:50:55.565Z,13.00
2023-04-19T12:53:24.341Z,13.00
2023-04-19T12:55:52.367Z,12.90
2023-04-19T12:58:21.778Z,12.70
2023-04-19T13:00:50.565Z,12.70
2023-04-19T13:03:18.688Z,12.70
2023-04-19T13:05:46.832Z,12.80
2023-04-19T13:08:14.811Z,12.70
2023-04-19T13:10:42.752Z,12.80
2023-04-19T13:13:10.889Z,12.90
2023-04-19T13:15:41.925Z,12.70
2023-04-19T13:18:10.396Z,12.70
2023-04-19T13:20:38.374Z,12.70
2023-04-19T13:23:06.375Z,12.70
2023-04-19T13:25:34.319Z,12.80
2023-04-19T13:28:02.340Z,12.80
2023-04-19T13:30:30.316Z,12.90
2023-04-19T13:33:01.021Z,12.90
2023-04-19T13:35:29.210Z,12.80
2023-04-19T13:37:57.185Z,12.70
2023-04-19T13:40:25.296Z,12.70
2023-04-19T13:42:54.316Z,12.80
2023-04-19T13:45:22.374Z,12.80
2023-04-19T13:47:50.389Z,12.80
2023-04-19T13:50:19.784Z,12.80
2023-04-19T13:52:47.765Z,12.70
2023-04-19T13:55:15.735Z,12.80
2023-04-19T13:57:43.991Z,12.60
2023-04-19T14:00:12.730Z,12.70
2023-04-19T14:02:40.962Z,12.80
2023-04-19T14:05:09.936Z,12.90
2023-04-19T14:07:40.251Z,12.90
2023-04-19T14:10:10.195Z,12.70
2023-04-19T14:12:38.180Z,12.70
2023-04-19T14:15:06.770Z,12.80
2023-04-19T14:17:36.029Z,12.70
2023-04-19T14:20:06.883Z,12.70
2023-04-19T14:22:35.666Z,12.60
2023-04-19T14:25:05.563Z,12.60
2023-04-19T14:27:34.021Z,12.70
2023-04-19T14:30:01.994Z,12.80
2023-04-19T14:32:30.030Z,12.70
2023-04-19T14:34:58.138Z,12.70
2023-04-19T14:37:26.205Z,12.50
2023-04-19T14:39:54.308Z,12.60
2023-04-19T14:42:23.635Z,12.60
2023-04-19T14:44:52.876Z,12.60
2023-04-19T14:47:21.295Z,12.70
2023-04-19T14:49:49.556Z,12.70
2023-04-19T14:52:17.842Z,12.70
2023-04-19T14:54:46.388Z,12.70
2023-04-19T14:57:14.458Z,12.90
2023-04-19T14:59:43.812Z,13.00
2023-04-19T15:02:13.342Z,12.90
2023-04-19T15:04:42.160Z,12.90
2023-04-19T15:07:10.661Z,12.70
2023-04-19T15:09:38.617Z,12.80
2023-04-19T15:12:06.886Z,12.80
2023-04-19T15:14:34.963Z,12.90
2023-04-19T15:17:04.456Z,12.90
2023-04-19T15:19:32.621Z,13.00
2023-04-19T15:22:00.562Z,13.00
2023-04-19T15:24:28.587Z,13.10
2023-04-19T15:26:56.707Z,13.20
2023-04-19T15:29:24.734Z,12.90
2023-04-19T15:31:52.812Z,13.00
2023-04-19T15:34:22.181Z,13.10
2023-04-19T15:36:50.189Z,13.00
2023-04-19T15:39:18.360Z,12.70
2023-04-19T15:41:46.434Z,12.60
2023-04-19T15:44:14.712Z,12.50
2023-04-19T15:46:42.708Z,12.20
2023-04-19T15:49:10.811Z,12.20
2023-04-19T15:51:40.571Z,12.10
2023-04-19T15:54:08.529Z,12.10
2023-04-19T15:56:36.480Z,12.10
2023-04-19T15:59:04.428Z,12.20
2023-04-19T16:01:32.415Z,12.20
2023-04-19T16:04:00.717Z,12.30
2023-04-19T16:06:28.945Z,12.30
2023-04-19T16:08:58.337Z,12.50
2023-04-19T16:11:26.362Z,12.50
2023-04-19T16:13:54.356Z,12.60
2023-04-19T16:16:22.323Z,12.80
2023-04-19T16:18:50.300Z,12.70
2023-04-19T16:21:18.291Z,12.50
2023-04-19T16:23:46.269Z,12.30
2023-04-19T16:26:15.605Z,12.00
2023-04-19T16:28:43.548Z,11.90
2023-04-19T16:31:12.074Z,11.80
2023-04-19T16:33:40.029Z,11.70
2023-04-19T16:36:08.034Z,11.70
2023-04-19T16:38:36.004Z,11.70
2023-04-19T16:41:05.633Z,11.70
2023-04-19T16:43:35.077Z,11.80
2023-04-19T16:46:03.081Z,11.60
2023-04-19T16:48:31.035Z,11.70
2023-04-19T16:50:59.079Z,11.60
2023-04-19T16:53:27.039Z,11.60
2023-04-19T16:55:56.535Z,11.70
2023-04-19T16:58:24.732Z,11.70
2023-04-19T17:00:54.126Z,11.70
2023-04-19T17:03:22.367Z,11.70
2023-04-19T17:05:50.480Z,11.50
2023-04-19T17:08:18.447Z,11.50
2023-04-19T17:10:46.404Z,11.40
2023-04-19T17:13:14.373Z,11.40
2023-04-19T17:15:42.428Z,11.20
2023-04-19T17:18:11.793Z,11.20
2023-04-19T17:20:39.780Z,11.10
2023-04-19T17:23:07.803Z,11.00
2023-04-19T17:25:35.854Z,11.10
2023-04-19T17:28:04.253Z,10.90
2023-04-19T17:30:32.287Z,11.00
2023-04-19T17:33:00.256Z,11.00
2023-04-19T17:35:29.690Z,10.90
2023-04-19T17:37:57.680Z,10.80
2023-04-19T17:40:28.013Z,10.70
2023-04-19T17:42:57.356Z,10.60
2023-04-19T17:45:25.514Z,10.60
2023-04-19T17:47:56.260Z,10.50
2023-04-19T17:50:24.608Z,10.50
2023-04-19T17:52:54.992Z,10.50
2023-04-19T17:55:23.006Z,10.40
2023-04-19T17:57:50.952Z,10.50
2023-04-19T18:00:19.269Z,10.40
2023-04-19T18:02:47.313Z,10.40
2023-04-19T18:05:15.614Z,10.40
2023-04-19T18:07:43.588Z,10.30
2023-04-19T18:10:13.056Z,10.20
2023-04-19T18:12:41.055Z,10.20
2023-04-19T18:15:10.428Z,10.10
2023-04-19T18:17:38.468Z,10.00
2023-04-19T18:20:08.304Z,10.00
2023-04-19T18:22:36.470Z,10.00
2023-04-19T18:25:04.665Z,9.90
2023-04-19T18:27:34.023Z,9.90
2023-04-19T18:30:03.817Z,9.90
2023-04-19T18:32:32.152Z,9.80
2023-04-19T18:35:00.225Z,9.70
2023-04-19T18:37:28.218Z,9.70
2023-04-19T18:39:56.243Z,9.60
2023-04-19T18:42:24.347Z,9.60
2023-04-19T18:44:54.772Z,9.50
2023-04-19T18:47:22.967Z,9.50
2023-04-19T18:50:03.240Z,9.50
2023-04-19T18:52:32.912Z,9.40
2023-04-19T18:55:01.068Z,9.40
2023-04-19T18:57:30.635Z,9.30
2023-04-19T19:00:05.426Z,9.30
2023-04-19T19:02:36.113Z,9.20
2023-04-19T19:05:07.351Z,9.20
2023-04-19T19:07:37.132Z,9.10
2023-04-19T19:10:18.645Z,9.10
2023-04-19T19:12:49.101Z,9.00
2023-04-19T19:15:19.039Z,9.00
2023-04-19T19:17:49.826Z,9.00
2023-04-19T19:20:18.818Z,8.90
2023-04-19T19:22:46.881Z,8.80
2023-04-19T19:25:14.955Z,8.80
2023-04-19T19:27:58.477Z,8.70
2023-04-19T19:30:33.914Z,8.70
2023-04-19T19:33:02.697Z,8.70
2023-04-19T19:35:30.901Z,8.60
2023-04-19T19:37:58.900Z,8.60
2023-04-19T19:40:31.081Z,8.60
2023-04-19T19:43:00.641Z,8.50
2023-04-19T19:45:29.350Z,8.50
2023-04-19T19:48:00.111Z,8.40
2023-04-19T19:53:00.765Z,8.30
2023-04-19T19:55:30.142Z,8.30
2023-04-19T20:03:02.220Z,8.20
2023-04-19T20:05:30.831Z,8.10
2023-04-19T20:08:10.550Z,8.10
2023-04-19T20:10:41.678Z,8.10
2023-04-19T20:13:09.980Z,8.00
2023-04-19T20:15:38.665Z,8.00
2023-04-19T20:18:08.289Z,8.00
2023-04-19T20:20:37.158Z,8.00
2023-04-19T20:23:05.178Z,7.90
2023-04-19T20:25:33.484Z,8.00
2023-04-19T20:28:01.915Z,7.90
2023-04-19T20:30:29.894Z,7.90
2023-04-19T20:32:57.996Z,7.90
2023-04-19T20:35:27.460Z,7.90
2023-04-19T20:38:02.265Z,8.00
2023-04-19T20:40:31.857Z,8.00
2023-04-19T20:42:59.882Z,8.00
2023-04-19T20:45:28.531Z,8.10
2023-04-19T20:47:58.430Z,8.10
2023-04-19T20:50:27.953Z,8.20
2023-04-19T20:52:56.687Z,8.20
2023-04-19T20:55:25.067Z,8.20
2023-04-19T20:57:53.312Z,8.30
2023-04-19T21:00:21.504Z,8.30
2023-04-19T21:02:50.124Z,8.30
2023-04-19T21:05:18.309Z,8.30
2023-04-19T21:07:47.703Z,8.30
2023-04-19T21:10:17.321Z,8.30
2023-04-19T21:12:45.553Z,8.30
2023-04-19T21:15:13.622Z,8.30
2023-04-19T21:17:41.730Z,8.30
2023-04-19T21:20:14.106Z,8.30
2023-04-19T21:22:42.986Z,8.30
2023-04-19T21:25:13.497Z,8.20
2023-04-19T21:27:42.229Z,8.20
2023-04-19T21:30:11.527Z,8.10
2023-04-19T21:32:39.706Z,8.10
2023-04-19T21:35:08.434Z,8.00
2023-04-19T21:37:37.140Z,7.90
2023-04-19T21:40:05.873Z,7.90
2023-04-19T21:42:35.622Z,7.90
2023-04-19T21:45:03.650Z,7.80
2023-04-19T21:47:32.067Z,7.80
2023-04-19T21:50:00.230Z,7.70
2023-04-19T21:52:28.267Z,7.70
2023-04-19T21:54:56.257Z,7.60
2023-04-19T21:57:25.186Z,7.60
2023-04-19T21:59:54.809Z,7.60
2023-04-19T22:02:22.913Z,7.50
2023-04-19T22:04:50.951Z,7.50
2023-04-19T22:07:19.409Z,7.60
2023-04-19T22:09:47.679Z,7.60
2023-04-19T22:12:15.698Z,7.60
2023-04-19T22:14:43.685Z,7.60
2023-04-19T22:17:13.166Z,7.60
2023-04-19T22:19:41.134Z,7.60
2023-04-19T22:22:09.139Z,7.60
2023-04-19T22:24:44.001Z,7.60
2023-04-19T22:27:21.636Z,7.60
2023-04-19T22:29:49.586Z,7.60
2023-04-19T22:32:19.053Z,7.60
2023-04-19T22:34:47.163Z,7.60
2023-04-19T22:37:15.509Z,7.60
2023-04-19T22:39:43.477Z,7.60
2023-04-19T22:42:11.503Z,7.60
2023-04-19T22:44:39.610Z,7.70
2023-04-19T22:47:07.740Z,7.70
2023-04-19T22:49:37.051Z,7.70
2023-04-19T22:52:05.487Z,7.70
2023-04-19T22:54:33.469Z,7.70
2023-04-19T22:57:01.696Z,7.80
2023-04-19T22:59:29.655Z,7.80
2023-04-19T23:01:57.674Z,7.70
2023-04-19T23:04:25.695Z,7.70
2023-04-19T23:06:55.066Z,7.60
2023-04-19T23:09:23.017Z,7.60
2023-04-19T23:11:50.989Z,7.60
2023-04-19T23:14:19.092Z,7.40
2023-04-19T23:16:47.089Z,7.30
2023-04-19T23:19:16.487Z,7.30
2023-04-19T23:21:44.690Z,7.20
2023-04-19T23:24:14.020Z,7.20
2023-04-19T23:26:41.991Z,7.10
2023-04-19T23:29:09.953Z,7.10
2023-04-19T23:31:37.987Z,7.10
2023-04-19T23:34:05.999Z,7.10
2023-04-19T23:36:33.992Z,7.10
2023-04-19T23:39:01.940Z,7.10
2023-04-19T23:41:31.279Z,7.10
2023-04-19T23:43:59.211Z,7.10
2023-04-19T23:46:27.345Z,7.20
2023-04-19T23:48:55.456Z,7.20
2023-04-19T23:51:23.465Z,7.20
2023-04-19T23:53:51.410Z,7.20
2023-04-19T23:56:19.404Z,7.20
2023-04-19T23:58:48.823Z,7.20
